Terminal Aerodrome Forecast
Issued by NWS Hastings, NE

Home | Current Version | Previous Version | Text Only | Print | Product List | Glossary On
Versions: 1 2 3 4 5 6 7 8 9 10 11 12 13 14 15 16 17 18 19 20 21 22 23 24 25 26 27 28 29 30
507
FTUS43 KGID 181120
TAFGRI
TAF
KGRI 181120Z 1812/1912 34018G25KT P6SM BKN050
     FM181900 33024G33KT P6SM FEW050 FEW250
     FM182300 33015G23KT P6SM FEW250
     FM190100 33006KT P6SM FEW250=

USA.gov is the U.S. government's official web portal to all federal, state and local government web resources and services.